createdAt,value
2019-05-13T00:02:04.864Z,70.76
2019-05-13T00:04:34.869Z,73.15
2019-05-13T00:07:05.025Z,73.18
2019-05-13T00:09:35.035Z,74.87
2019-05-13T00:12:05.098Z,74.82
2019-05-13T00:14:35.121Z,73.88
2019-05-13T00:17:05.253Z,72.20
2019-05-13T00:19:35.297Z,72.17
2019-05-13T00:22:05.280Z,71.99
2019-05-13T00:24:35.403Z,72.32
2019-05-13T00:27:05.381Z,72.23
2019-05-13T00:29:35.399Z,72.68
2019-05-13T00:32:05.376Z,74.29
2019-05-13T00:34:35.346Z,72.02
2019-05-13T00:37:11.235Z,72.09
2019-05-13T00:39:37.149Z,70.30
2019-05-13T00:42:07.279Z,71.02
2019-05-13T00:44:37.286Z,71.02
2019-05-13T00:47:07.299Z,71.89
2019-05-13T00:49:37.293Z,72.53
2019-05-13T00:52:07.239Z,73.96
2019-05-13T00:54:37.226Z,70.74
2019-05-13T00:57:07.195Z,70.76
2019-05-13T00:59:37.185Z,71.04
2019-05-13T01:02:07.122Z,72.43
2019-05-13T01:04:37.113Z,70.62
2019-05-13T01:07:07.103Z,69.47
2019-05-13T01:09:39.442Z,73.39
2019-05-13T01:12:09.390Z,71.82
2019-05-13T01:14:39.364Z,70.79
2019-05-13T01:17:09.335Z,71.92
2019-05-13T01:19:39.319Z,73.95
2019-05-13T01:22:09.298Z,71.81
2019-05-13T01:24:39.348Z,73.58
2019-05-13T01:27:09.275Z,71.39
2019-05-13T01:29:39.243Z,73.99
2019-05-13T01:32:09.192Z,71.16
2019-05-13T01:34:39.166Z,73.11
2019-05-13T01:37:09.117Z,75.09
2019-05-13T01:39:39.545Z,73.61
2019-05-13T01:42:09.493Z,74.28
2019-05-13T01:44:39.466Z,74.60
2019-05-13T01:47:09.538Z,76.62
2019-05-13T01:49:39.530Z,73.77
2019-05-13T01:52:09.486Z,72.68
2019-05-13T01:54:39.489Z,72.32
2019-05-13T01:57:09.486Z,73.85
2019-05-13T01:59:39.457Z,75.01
2019-05-13T02:02:09.421Z,73.24
2019-05-13T02:04:39.380Z,74.76
2019-05-13T02:07:09.330Z,73.40
2019-05-13T02:09:39.708Z,74.50
2019-05-13T02:12:09.653Z,72.84
2019-05-13T02:14:39.647Z,75.85
2019-05-13T02:17:09.599Z,72.17
2019-05-13T02:19:39.576Z,74.84
2019-05-13T02:22:09.540Z,72.06
2019-05-13T02:24:39.535Z,74.19
2019-05-13T02:27:09.479Z,75.21
2019-05-13T02:29:39.454Z,74.30
2019-05-13T02:32:13.284Z,76.24
2019-05-13T02:34:43.757Z,74.01
2019-05-13T02:37:13.056Z,73.84
2019-05-13T02:39:43.071Z,73.89
2019-05-13T02:42:13.483Z,74.60
2019-05-13T02:44:43.872Z,74.86
2019-05-13T02:47:13.897Z,75.58
2019-05-13T02:49:43.851Z,75.35
2019-05-13T02:52:13.804Z,71.93
2019-05-13T02:54:43.750Z,77.04
2019-05-13T02:57:13.742Z,76.03
2019-05-13T02:59:43.807Z,74.98
2019-05-13T03:02:13.815Z,76.58
2019-05-13T03:04:43.920Z,77.04
2019-05-13T03:07:13.901Z,74.04
2019-05-13T03:09:43.883Z,76.38
2019-05-13T03:12:13.871Z,76.62
2019-05-13T03:14:47.991Z,75.65
2019-05-13T03:17:24.025Z,77.52
2019-05-13T03:19:53.948Z,78.05
2019-05-13T03:22:24.011Z,76.10
2019-05-13T03:24:53.956Z,75.61
2019-05-13T03:27:25.117Z,76.80
2019-05-13T03:29:55.504Z,79.59
2019-05-13T03:32:28.833Z,78.17
2019-05-13T03:34:57.357Z,75.51
2019-05-13T03:37:27.838Z,76.92
2019-05-13T03:39:58.190Z,76.85
2019-05-13T03:42:28.852Z,78.52
2019-05-13T03:45:03.072Z,75.44
2019-05-13T03:47:33.616Z,77.10
2019-05-13T03:50:04.077Z,77.12
2019-05-13T03:52:34.212Z,76.31
2019-05-13T03:55:04.325Z,78.82
2019-05-13T03:57:34.318Z,75.57
2019-05-13T04:00:04.580Z,77.72
2019-05-13T04:02:34.850Z,75.45
2019-05-13T04:05:05.530Z,77.57
2019-05-13T04:07:35.498Z,75.72
2019-05-13T04:10:05.852Z,73.90
2019-05-13T04:12:35.936Z,72.47
2019-05-13T04:15:05.912Z,75.92
2019-05-13T04:17:35.902Z,73.46
2019-05-13T04:20:06.173Z,72.01
2019-05-13T04:22:36.261Z,74.99
2019-05-13T04:25:06.296Z,75.29
2019-05-13T04:27:36.287Z,76.37
2019-05-13T04:30:07.662Z,76.99
2019-05-13T04:32:37.648Z,76.29
2019-05-13T04:35:08.029Z,73.52
2019-05-13T04:37:38.035Z,76.10
2019-05-13T04:40:08.078Z,78.74
2019-05-13T04:42:38.064Z,75.71
2019-05-13T04:45:08.116Z,76.37
2019-05-13T04:47:38.080Z,78.54
2019-05-13T04:50:08.731Z,79.76
2019-05-13T04:52:42.071Z,79.80
2019-05-13T04:55:13.189Z,78.59
2019-05-13T04:57:42.843Z,76.56
2019-05-13T05:00:13.129Z,77.08
2019-05-13T05:03:13.797Z,78.20
2019-05-13T05:06:24.295Z,78.13
2019-05-13T05:10:02.464Z,78.94
2019-05-13T05:12:58.230Z,78.03
2019-05-13T05:15:43.175Z,79.56
2019-05-13T05:18:52.868Z,79.27
2019-05-13T05:21:27.579Z,81.52
2019-05-13T05:24:52.126Z,79.38
2019-05-13T05:27:59.145Z,79.87
2019-05-13T05:31:05.287Z,80.71
2019-05-13T05:34:12.489Z,80.67
2019-05-13T05:37:26.827Z,79.82
2019-05-13T05:39:56.802Z,79.67
2019-05-13T05:42:28.063Z,80.44
2019-05-13T05:45:02.554Z,81.23
2019-05-13T05:47:32.270Z,81.14
2019-05-13T05:50:03.163Z,81.64
2019-05-13T05:52:34.067Z,80.31
2019-05-13T05:55:04.424Z,80.77
2019-05-13T05:57:34.711Z,80.04
2019-05-13T06:00:04.943Z,80.06
2019-05-13T06:02:35.887Z,79.53
2019-05-13T06:05:06.316Z,80.12
2019-05-13T06:07:37.113Z,79.32
2019-05-13T06:10:07.190Z,78.91
2019-05-13T06:12:37.679Z,79.70
2019-05-13T06:15:07.884Z,78.94
2019-05-13T06:17:37.837Z,78.74
2019-05-13T06:20:08.606Z,78.58
2019-05-13T06:22:38.540Z,78.10
2019-05-13T06:25:08.678Z,78.31
2019-05-13T06:27:38.597Z,78.19
2019-05-13T06:30:08.721Z,77.47
2019-05-13T06:32:38.671Z,77.49
2019-05-13T06:35:08.650Z,77.31
2019-05-13T06:37:38.590Z,76.98
2019-05-13T06:40:08.691Z,76.66
2019-05-13T06:42:38.674Z,76.80
2019-05-13T06:45:08.782Z,76.46
2019-05-13T06:47:41.174Z,76.05
2019-05-13T06:50:11.635Z,75.84
2019-05-13T06:52:42.584Z,75.96
2019-05-13T06:55:12.728Z,76.24
2019-05-13T06:57:42.680Z,74.87
2019-05-13T07:00:12.798Z,74.48
2019-05-13T07:02:42.901Z,74.56
2019-05-13T07:05:13.342Z,74.54
2019-05-13T07:07:43.336Z,74.26
2019-05-13T07:10:14.997Z,73.66
2019-05-13T07:12:44.944Z,73.13
2019-05-13T07:15:15.054Z,72.73
2019-05-13T07:17:45.021Z,71.88
2019-05-13T07:20:15.323Z,71.60
2019-05-13T07:22:45.315Z,72.24
2019-05-13T07:25:15.334Z,71.39
2019-05-13T07:27:45.338Z,70.40
2019-05-13T07:30:17.158Z,70.21
2019-05-13T07:32:47.128Z,69.54
2019-05-13T07:35:17.853Z,68.33
2019-05-13T07:37:47.905Z,68.76
2019-05-13T07:40:17.951Z,68.40
2019-05-13T07:42:47.945Z,66.62
2019-05-13T07:45:17.984Z,66.28
2019-05-13T07:47:47.967Z,65.14
2019-05-13T07:50:17.973Z,64.86
2019-05-13T07:52:48.012Z,64.58
2019-05-13T07:55:17.982Z,64.59
2019-05-13T07:57:48.006Z,64.09
2019-05-13T08:00:18.136Z,61.42
2019-05-13T08:02:48.120Z,61.42
2019-05-13T08:05:18.472Z,61.77
2019-05-13T08:07:48.588Z,61.15
2019-05-13T08:10:18.752Z,60.87
2019-05-13T08:12:48.734Z,61.18
2019-05-13T08:15:18.912Z,60.67
2019-05-13T08:17:49.112Z,59.78
2019-05-13T08:20:21.908Z,59.09
2019-05-13T08:22:52.026Z,58.94
2019-05-13T08:25:22.355Z,58.69
2019-05-13T08:27:52.801Z,58.10
2019-05-13T08:30:22.893Z,57.40
2019-05-13T08:32:52.904Z,57.70
2019-05-13T08:35:22.828Z,58.30
2019-05-13T08:37:52.833Z,57.30
2019-05-13T08:40:23.522Z,56.31
2019-05-13T08:42:53.599Z,55.46
2019-05-13T08:45:23.580Z,55.38
2019-05-13T08:47:53.576Z,55.42
2019-05-13T08:50:23.553Z,53.92
2019-05-13T08:52:53.535Z,54.22
2019-05-13T08:55:23.534Z,53.52
2019-05-13T08:57:55.229Z,53.69
2019-05-13T09:00:52.814Z,53.32
2019-05-13T09:03:22.841Z,51.38
2019-05-13T09:05:53.491Z,51.88
2019-05-13T09:08:24.379Z,50.95
2019-05-13T09:10:56.791Z,51.85
2019-05-13T09:13:26.166Z,50.74
2019-05-13T09:15:56.156Z,50.15
2019-05-13T09:18:26.141Z,50.14
2019-05-13T09:20:56.096Z,50.83
2019-05-13T09:23:26.179Z,49.31
2019-05-13T09:25:56.232Z,49.84
2019-05-13T09:28:26.197Z,48.21
2019-05-13T09:30:56.195Z,48.12
2019-05-13T09:33:26.215Z,47.14
2019-05-13T09:35:56.184Z,48.42
2019-05-13T09:38:26.229Z,47.19
2019-05-13T09:40:56.197Z,47.67
2019-05-13T09:43:26.207Z,45.66
2019-05-13T09:45:56.162Z,46.24
2019-05-13T09:48:26.157Z,46.10
2019-05-13T09:50:56.157Z,45.58
2019-05-13T09:53:26.736Z,45.96
2019-05-13T09:55:56.709Z,45.13
2019-05-13T09:58:29.771Z,46.15
2019-05-13T10:00:58.596Z,44.84
2019-05-13T10:03:29.758Z,45.14
2019-05-13T10:06:02.459Z,43.03
2019-05-13T10:08:32.775Z,44.62
2019-05-13T10:11:02.932Z,44.69
2019-05-13T10:13:32.938Z,43.08
2019-05-13T10:16:02.937Z,43.15
2019-05-13T10:18:32.949Z,44.56
2019-05-13T10:21:04.024Z,44.66
2019-05-13T10:23:34.291Z,42.83
2019-05-13T10:26:07.101Z,43.70
2019-05-13T10:28:37.068Z,42.66
2019-05-13T10:31:07.521Z,42.21
2019-05-13T10:33:42.052Z,40.37
2019-05-13T10:36:13.757Z,39.06
2019-05-13T10:38:45.429Z,39.76
2019-05-13T10:41:15.442Z,39.33
2019-05-13T10:43:45.763Z,38.23
2019-05-13T10:46:15.783Z,39.93
2019-05-13T10:48:46.514Z,40.11
2019-05-13T10:51:16.546Z,40.42
2019-05-13T10:53:46.516Z,39.40
2019-05-13T10:56:16.483Z,38.93
2019-05-13T10:58:46.626Z,35.35
2019-05-13T11:01:16.635Z,34.83
2019-05-13T11:03:46.588Z,34.20
2019-05-13T11:06:16.582Z,36.40
2019-05-13T11:08:46.562Z,34.63
2019-05-13T11:11:16.550Z,33.87
2019-05-13T11:13:54.395Z,33.42
2019-05-13T11:16:18.312Z,33.25
2019-05-13T11:18:48.421Z,33.38
2019-05-13T11:21:18.425Z,33.42
2019-05-13T11:23:48.410Z,33.65
2019-05-13T11:26:18.395Z,33.71
2019-05-13T11:28:48.400Z,34.22
2019-05-13T11:31:18.388Z,35.16
2019-05-13T11:33:48.484Z,35.22
2019-05-13T11:36:19.474Z,35.49
2019-05-13T11:38:49.793Z,36.09
2019-05-13T11:41:22.800Z,35.16
2019-05-13T11:44:11.084Z,34.83
2019-05-13T11:46:24.877Z,34.99
2019-05-13T11:48:54.844Z,35.30
2019-05-13T11:51:24.852Z,35.15
2019-05-13T11:53:54.820Z,35.68
2019-05-13T11:56:24.980Z,35.53
2019-05-13T11:58:54.973Z,36.90
2019-05-13T12:01:25.004Z,36.05
2019-05-13T12:03:55.036Z,35.72
2019-05-13T12:06:25.000Z,35.67
2019-05-13T12:08:55.555Z,36.06
2019-05-13T12:11:25.681Z,34.72
2019-05-13T12:13:55.640Z,35.42
2019-05-13T12:16:25.632Z,35.66
2019-05-13T12:18:55.733Z,36.12
2019-05-13T12:21:26.224Z,36.68
2019-05-13T12:23:56.552Z,35.79
2019-05-13T12:26:26.828Z,35.97
2019-05-13T12:28:56.843Z,36.07
2019-05-13T12:31:26.826Z,36.26
2019-05-13T12:33:57.044Z,35.80
2019-05-13T12:36:27.027Z,37.28
2019-05-13T12:38:57.008Z,37.49
2019-05-13T12:41:27.007Z,38.57
2019-05-13T12:43:57.042Z,39.65
2019-05-13T12:46:27.125Z,40.11
2019-05-13T12:48:57.159Z,39.51
2019-05-13T12:51:28.022Z,39.38
2019-05-13T12:53:57.975Z,39.12
2019-05-13T12:56:28.004Z,38.79
2019-05-13T12:58:58.002Z,38.35
2019-05-13T13:01:27.993Z,39.33
2019-05-13T13:03:57.975Z,39.84
2019-05-13T13:06:36.086Z,39.55
2019-05-13T13:08:59.924Z,37.64
2019-05-13T13:11:32.412Z,37.30
2019-05-13T13:14:05.739Z,38.80
2019-05-13T13:16:36.117Z,38.58
2019-05-13T13:19:05.421Z,39.43
2019-05-13T13:21:37.702Z,39.86
2019-05-13T13:24:07.094Z,39.52
2019-05-13T13:26:37.086Z,41.21
2019-05-13T13:29:07.164Z,40.46
2019-05-13T13:31:37.144Z,41.05
2019-05-13T13:34:12.629Z,40.64
2019-05-13T13:36:39.027Z,40.20
2019-05-13T13:39:09.390Z,39.96
2019-05-13T13:41:39.367Z,40.29
2019-05-13T13:44:11.615Z,40.43
2019-05-13T13:46:44.617Z,40.84
2019-05-13T13:49:13.243Z,42.30
2019-05-13T13:51:44.502Z,41.54
2019-05-13T13:54:15.133Z,42.21
2019-05-13T13:56:45.158Z,42.47
2019-05-13T13:59:15.593Z,42.18
2019-05-13T14:01:45.761Z,41.88
2019-05-13T14:04:16.729Z,42.83
2019-05-13T14:09:18.640Z,43.45
2019-05-13T14:11:51.391Z,44.83
2019-05-13T14:14:21.522Z,44.15
2019-05-13T14:16:52.096Z,44.25
2019-05-13T14:19:22.206Z,44.16
2019-05-13T14:21:52.686Z,44.87
2019-05-13T14:24:22.920Z,44.51
2019-05-13T14:26:52.920Z,44.22
2019-05-13T14:29:37.544Z,43.74
2019-05-13T14:31:55.313Z,41.35
2019-05-13T14:34:25.333Z,41.06
2019-05-13T14:36:55.673Z,40.73
2019-05-13T14:39:25.712Z,40.67
2019-05-13T14:41:55.685Z,40.31
2019-05-13T14:44:25.689Z,40.35
2019-05-13T14:46:55.718Z,40.71
2019-05-13T14:49:25.781Z,40.72
2019-05-13T14:51:56.399Z,40.17
2019-05-13T14:54:26.502Z,39.60
2019-05-13T14:56:56.846Z,39.62
2019-05-13T14:59:26.845Z,39.83
2019-05-13T15:01:56.850Z,40.58
2019-05-13T15:04:26.834Z,41.03
2019-05-13T15:06:56.781Z,40.16
2019-05-13T15:09:26.789Z,40.50
2019-05-13T15:11:56.860Z,40.61
2019-05-13T15:14:26.894Z,40.45
2019-05-13T15:17:02.741Z,40.18
2019-05-13T15:19:28.573Z,40.57
2019-05-13T15:21:58.652Z,41.50
2019-05-13T15:24:28.722Z,41.06
2019-05-13T15:26:58.748Z,40.31
2019-05-13T15:29:31.139Z,41.32
2019-05-13T15:32:02.065Z,41.20
2019-05-13T15:34:32.340Z,41.42
2019-05-13T15:37:02.516Z,41.90
2019-05-13T15:39:32.495Z,41.67
2019-05-13T15:42:02.475Z,42.38
2019-05-13T15:44:32.862Z,41.75
2019-05-13T15:47:18.218Z,42.09
2019-05-13T15:49:34.603Z,42.23
2019-05-13T15:52:04.595Z,42.07
2019-05-13T15:54:34.571Z,42.02
2019-05-13T15:57:04.572Z,42.06
2019-05-13T15:59:34.552Z,42.00
2019-05-13T16:02:04.587Z,41.75
2019-05-13T16:04:49.029Z,41.96
2019-05-13T16:07:06.469Z,42.33
2019-05-13T16:09:36.453Z,42.63
2019-05-13T16:12:06.592Z,42.00
2019-05-13T16:14:36.722Z,42.48
2019-05-13T16:17:06.718Z,42.50
2019-05-13T16:19:36.754Z,42.48
2019-05-13T16:22:06.755Z,43.42
2019-05-13T16:24:36.748Z,44.17
2019-05-13T16:27:06.775Z,44.07
2019-05-13T16:29:36.764Z,44.62
2019-05-13T16:32:06.946Z,45.21
2019-05-13T16:34:36.941Z,45.37
2019-05-13T16:37:06.938Z,45.90
2019-05-13T16:39:36.940Z,46.18
2019-05-13T16:42:06.978Z,46.66
2019-05-13T16:44:36.994Z,46.99
2019-05-13T16:47:07.013Z,47.31
2019-05-13T16:49:36.984Z,47.94
2019-05-13T16:52:06.982Z,47.93
2019-05-13T16:54:36.968Z,48.84
2019-05-13T16:57:06.997Z,48.85
2019-05-13T16:59:36.948Z,48.79
2019-05-13T17:02:07.004Z,49.15
2019-05-13T17:04:36.986Z,49.56
2019-05-13T17:07:07.028Z,49.96
2019-05-13T17:09:37.027Z,50.18
2019-05-13T17:12:07.088Z,50.55
2019-05-13T17:14:37.070Z,51.38
2019-05-13T17:17:07.081Z,51.58
2019-05-13T17:19:37.075Z,52.10
2019-05-13T17:22:07.103Z,52.94
2019-05-13T17:24:37.115Z,53.53
2019-05-13T17:27:07.120Z,53.65
2019-05-13T17:29:37.179Z,53.59
2019-05-13T17:32:07.336Z,54.07
2019-05-13T17:34:37.345Z,54.55
2019-05-13T17:37:07.448Z,55.24
2019-05-13T17:39:37.534Z,55.94
2019-05-13T17:42:07.628Z,55.94
2019-05-13T17:44:37.669Z,56.75
2019-05-13T17:47:07.853Z,57.39
2019-05-13T17:49:37.838Z,56.31
2019-05-13T17:52:07.889Z,56.49
2019-05-13T17:54:37.928Z,57.01
2019-05-13T17:57:07.969Z,56.16
2019-05-13T17:59:37.969Z,56.55
2019-05-13T18:02:08.013Z,57.03
2019-05-13T18:04:38.016Z,57.36
2019-05-13T18:07:08.021Z,57.45
2019-05-13T18:09:42.316Z,57.10
2019-05-13T18:12:12.629Z,58.78
2019-05-13T18:14:42.697Z,58.92
2019-05-13T18:17:12.739Z,58.85
2019-05-13T18:19:42.757Z,58.63
2019-05-13T18:22:12.761Z,59.27
2019-05-13T18:24:42.841Z,58.99
2019-05-13T18:27:12.880Z,58.99
2019-05-13T18:29:42.992Z,59.44
2019-05-13T18:32:13.020Z,59.87
2019-05-13T18:34:43.043Z,59.17
2019-05-13T18:37:13.067Z,59.45
2019-05-13T18:39:43.046Z,60.28
2019-05-13T18:42:13.093Z,60.66
2019-05-13T18:44:43.105Z,59.99
2019-05-13T18:47:13.127Z,59.56
2019-05-13T18:49:43.123Z,59.43
2019-05-13T18:52:13.118Z,59.49
2019-05-13T18:54:43.156Z,60.18
2019-05-13T18:57:13.170Z,60.24
2019-05-13T18:59:43.225Z,60.96
2019-05-13T19:02:13.273Z,61.22
2019-05-13T19:04:43.333Z,60.99
2019-05-13T19:07:13.315Z,61.08
2019-05-13T19:09:43.328Z,61.21
2019-05-13T19:12:13.431Z,61.61
2019-05-13T19:14:43.457Z,61.36
2019-05-13T19:17:13.425Z,62.03
2019-05-13T19:19:43.511Z,61.99
2019-05-13T19:22:13.614Z,61.90
2019-05-13T19:24:43.588Z,61.58
2019-05-13T19:27:13.573Z,61.76
2019-05-13T19:29:43.655Z,62.02
2019-05-13T19:32:13.664Z,61.76
2019-05-13T19:34:43.663Z,62.25
2019-05-13T19:37:13.663Z,63.48
2019-05-13T19:39:43.694Z,62.63
2019-05-13T19:42:13.679Z,63.03
2019-05-13T19:44:43.677Z,62.44
2019-05-13T19:47:13.675Z,63.84
2019-05-13T19:49:46.548Z,63.09
2019-05-13T19:52:15.367Z,62.84
2019-05-13T19:54:45.467Z,64.48
2019-05-13T19:57:15.498Z,64.23
2019-05-13T19:59:45.557Z,63.24
2019-05-13T20:02:15.615Z,63.86
2019-05-13T20:04:45.657Z,64.00
2019-05-13T20:07:15.643Z,64.36
2019-05-13T20:09:45.663Z,64.00
2019-05-13T20:12:15.975Z,64.26
2019-05-13T20:14:46.068Z,64.92
2019-05-13T20:17:16.038Z,64.17
2019-05-13T20:19:50.520Z,65.42
2019-05-13T20:22:17.762Z,66.27
2019-05-13T20:24:47.761Z,65.83
2019-05-13T20:27:17.713Z,65.00
2019-05-13T20:29:47.735Z,65.32
2019-05-13T20:32:17.734Z,66.71
2019-05-13T20:34:47.720Z,66.38
2019-05-13T20:37:17.713Z,65.95
2019-05-13T20:39:47.703Z,65.21
2019-05-13T20:42:17.719Z,65.69
2019-05-13T20:44:47.717Z,66.10
2019-05-13T20:47:17.742Z,66.10
2019-05-13T20:49:59.228Z,66.67
2019-05-13T20:52:22.029Z,66.61
2019-05-13T20:54:51.298Z,65.27
2019-05-13T20:57:22.226Z,66.22
2019-05-13T20:59:52.405Z,66.85
2019-05-13T21:02:22.471Z,65.69
2019-05-13T21:04:52.454Z,66.55
2019-05-13T21:07:22.477Z,66.94
2019-05-13T21:09:52.482Z,66.95
2019-05-13T21:12:22.484Z,68.60
2019-05-13T21:14:52.513Z,66.45
2019-05-13T21:17:22.502Z,66.54
2019-05-13T21:19:52.862Z,65.76
2019-05-13T21:22:22.897Z,67.91
2019-05-13T21:24:52.889Z,66.53
2019-05-13T21:27:22.867Z,68.80
2019-05-13T21:29:52.882Z,65.60
2019-05-13T21:32:22.894Z,65.60
2019-05-13T21:34:52.936Z,66.21
2019-05-13T21:37:23.053Z,67.49
2019-05-13T21:39:53.126Z,67.91
2019-05-13T21:42:23.086Z,68.21
2019-05-13T21:44:53.188Z,68.38
2019-05-13T21:47:23.216Z,67.76
2019-05-13T21:49:53.198Z,68.10
2019-05-13T21:52:23.960Z,68.10
2019-05-13T21:54:53.983Z,66.81
2019-05-13T21:57:23.988Z,66.52
2019-05-13T21:59:53.950Z,66.37
2019-05-13T22:02:24.103Z,69.63
2019-05-13T22:04:54.101Z,68.62
2019-05-13T22:07:24.168Z,68.14
2019-05-13T22:09:54.152Z,66.72
2019-05-13T22:12:24.154Z,67.56
2019-05-13T22:14:54.113Z,69.39
2019-05-13T22:17:24.116Z,67.58
2019-05-13T22:19:54.150Z,65.75
2019-05-13T22:22:24.440Z,65.75
2019-05-13T22:24:54.399Z,65.67
2019-05-13T22:27:24.393Z,66.37
2019-05-13T22:29:54.362Z,67.56
2019-05-13T22:32:24.337Z,65.24
2019-05-13T22:34:54.317Z,67.45
2019-05-13T22:37:24.294Z,66.15
2019-05-13T22:39:54.281Z,65.45
2019-05-13T22:42:24.281Z,64.01
2019-05-13T22:44:54.278Z,64.01
2019-05-13T22:47:24.296Z,67.45
2019-05-13T22:49:56.832Z,67.45
2019-05-13T22:52:25.975Z,64.32
2019-05-13T22:54:55.988Z,64.34
2019-05-13T22:57:25.990Z,65.83
2019-05-13T22:59:56.008Z,67.12
2019-05-13T23:02:26.044Z,67.12
2019-05-13T23:04:56.044Z,67.00
2019-05-13T23:07:26.103Z,65.57
2019-05-13T23:09:56.056Z,65.92
2019-05-13T23:12:26.037Z,67.01
2019-05-13T23:14:56.042Z,68.76
2019-05-13T23:17:26.026Z,67.81
2019-05-13T23:19:56.255Z,67.81
2019-05-13T23:22:26.228Z,66.74
2019-05-13T23:24:56.206Z,68.30
2019-05-13T23:27:26.184Z,65.56
2019-05-13T23:29:56.194Z,65.75
2019-05-13T23:32:26.153Z,67.57
2019-05-13T23:34:56.170Z,66.61
2019-05-13T23:37:26.112Z,66.58
2019-05-13T23:39:56.128Z,66.98
2019-05-13T23:42:26.105Z,65.95
2019-05-13T23:44:56.105Z,66.76
2019-05-13T23:47:26.048Z,67.16
2019-05-13T23:49:56.092Z,65.94
2019-05-13T23:52:26.068Z,69.12
2019-05-13T23:54:56.120Z,67.77
2019-05-13T23:57:26.097Z,67.73
2019-05-13T23:59:56.104Z,71.56
